Time;durP1;ratioP1;P1;durP2;ratioP2;P2;SDS_P1;SDS_P2;PMS_P1;PMS_P2;Temp;Humidity;BMP_temperature;BMP_pressure;BME280_temperature;BME280_humidity;BME280_pressure;Samples;Min_cycle;Max_cycle;Signal;HPM_P1;HPM_P2
2023/10/19 00:00:49;;;;;;;0.15;0.15;;;;;;;13.68;80.61;99255.47;5112194;27;20032;-79
2023/10/19 00:03:17;;;;;;;0.17;0.17;;;;;;;13.79;80.18;99268.16;5107296;28;20406;-77
2023/10/19 00:05:45;;;;;;;0.10;0.10;;;;;;;13.83;79.84;99265.25;5101797;28;20039;-78
2023/10/19 00:11:09;;;;;;;0.10;0.10;;;;;;;13.83;80.71;99259.91;5065320;28;20414;-79
2023/10/19 00:13:37;;;;;;;0.68;0.68;;;;;;;13.94;80.24;99261.06;5045924;28;20494;-79
2023/10/19 00:16:12;;;;;;;2.60;0.55;;;;;;;13.98;79.93;99262.59;5048145;28;20061;-80
2023/10/19 00:18:42;;;;;;;0.32;0.32;;;;;;;14.00;80.43;99258.91;5044047;28;20471;-80
2023/10/19 00:21:24;;;;;;;0.10;0.10;;;;;;;14.02;80.89;99256.16;5054056;28;20489;-81
2023/10/19 00:24:04;;;;;;;0.95;0.95;;;;;;;14.09;80.44;99238.84;5053579;28;20039;-80
2023/10/19 00:26:30;;;;;;;2.13;1.45;;;;;;;14.05;80.54;99254.16;5053785;28;20025;-80
2023/10/19 00:28:57;;;;;;;0.20;0.20;;;;;;;14.12;80.44;99249.31;5053462;28;20017;-80
2023/10/19 00:31:26;;;;;;;0.10;0.10;;;;;;;14.14;80.56;99242.06;5053577;28;20501;-79
2023/10/19 00:33:53;;;;;;;0.10;0.10;;;;;;;14.15;80.33;99246.47;5044140;28;20033;-81
2023/10/19 00:36:20;;;;;;;0.40;0.40;;;;;;;14.15;81.01;99248.28;5053133;28;20030;-79
2023/10/19 00:38:51;;;;;;;0.10;0.10;;;;;;;14.22;80.77;99245.16;5049858;28;20449;-80
2023/10/19 00:41:24;;;;;;;0.30;0.30;;;;;;;14.21;81.47;99238.09;5051498;28;20032;-80
2023/10/19 00:43:53;;;;;;;0.10;0.10;;;;;;;14.29;81.16;99244.78;5052713;28;20475;-80
2023/10/19 00:49:01;;;;;;;0.20;0.20;;;;;;;14.37;81.09;99239.84;5090057;27;20400;-80
2023/10/19 00:56:48;;;;;;;0.20;0.20;;;;;;;14.47;80.90;99238.31;5123471;27;20383;-81
2023/10/19 00:59:29;;;;;;;2.92;2.38;;;;;;;14.46;81.47;99236.59;5093680;28;20428;-80
2023/10/19 01:02:16;;;;;;;3.00;0.73;;;;;;;14.51;81.23;99241.66;5093061;28;20035;-80
2023/10/19 01:04:44;;;;;;;4.00;0.40;;;;;;;14.54;81.22;99238.78;5094497;28;20024;-80
2023/10/19 01:07:15;;;;;;;0.10;0.10;;;;;;;14.55;81.69;99240.50;5099485;28;20555;-80
2023/10/19 01:09:44;;;;;;;0.10;0.10;;;;;;;14.61;81.08;99239.28;5094128;28;20086;-80
2023/10/19 01:12:25;;;;;;;0.50;0.50;;;;;;;14.62;81.42;99243.66;5094270;28;20055;-79
2023/10/19 01:17:53;;;;;;;0.80;0.80;;;;;;;14.72;82.07;99244.81;5114426;27;20599;-81
2023/10/19 01:20:33;;;;;;;0.27;0.27;;;;;;;14.76;82.20;99243.66;5128201;28;20268;-80
2023/10/19 01:28:47;;;;;;;3.20;1.80;;;;;;;14.88;82.67;99232.22;5100887;27;20404;-80
2023/10/19 01:31:38;;;;;;;0.15;0.15;;;;;;;15.03;82.33;99245.53;5088645;28;20087;-80
2023/10/19 01:34:06;;;;;;;0.10;0.10;;;;;;;15.01;83.08;99231.44;5089894;28;20038;-81
2023/10/19 01:36:42;;;;;;;0.47;0.47;;;;;;;15.06;83.82;99237.31;5086730;28;20441;-80
2023/10/19 01:39:10;;;;;;;0.57;0.57;;;;;;;15.23;83.77;99238.03;5089265;28;20085;-80
2023/10/19 01:41:37;;;;;;;0.20;0.20;;;;;;;15.27;85.69;99236.91;5088306;28;20416;-79
2023/10/19 01:44:04;;;;;;;0.15;0.15;;;;;;;15.51;85.22;99240.63;5084393;28;20028;-81
2023/10/19 01:46:33;;;;;;;0.20;0.20;;;;;;;15.60;85.62;99240.94;5087076;28;20036;-80
2023/10/19 01:49:01;;;;;;;0.47;0.47;;;;;;;15.79;84.06;99235.25;5089472;28;20548;-80
2023/10/19 01:51:29;;;;;;;0.00;0.00;;;;;;;15.90;84.37;99239.88;5085262;28;20039;-79
2023/10/19 01:53:57;;;;;;;0.10;0.10;;;;;;;15.97;84.54;99239.34;5091206;28;20032;-79
2023/10/19 01:56:24;;;;;;;0.10;0.10;;;;;;;16.06;83.58;99235.19;5085765;28;20553;-80
2023/10/19 01:58:51;;;;;;;0.10;0.10;;;;;;;16.09;83.62;99229.66;5084336;28;20559;-80
2023/10/19 02:01:33;;;;;;;0.10;0.10;;;;;;;16.14;83.78;99232.03;5091276;28;20545;-81
2023/10/19 02:04:03;;;;;;;0.10;0.10;;;;;;;16.16;83.62;99225.59;5082587;28;20036;-80
2023/10/19 02:09:17;;;;;;;0.10;0.10;;;;;;;16.15;83.62;99228.41;5070799;28;20399;-80
2023/10/19 02:11:46;;;;;;;0.10;0.10;;;;;;;16.21;83.25;99227.09;5051837;28;20021;-78
2023/10/19 02:14:14;;;;;;;0.10;0.10;;;;;;;16.19;83.57;99224.53;5051070;28;20037;-79
2023/10/19 02:16:46;;;;;;;0.00;0.00;;;;;;;16.27;84.04;99221.31;5042854;28;20025;-80
2023/10/19 02:19:13;;;;;;;0.10;0.10;;;;;;;16.32;82.81;99219.19;5048573;28;20393;-80
2023/10/19 02:21:40;;;;;;;0.10;0.10;;;;;;;16.29;83.61;99220.25;5051058;28;20396;-80
2023/10/19 02:24:08;;;;;;;0.35;0.35;;;;;;;16.31;83.61;99218.34;5052212;28;20045;-80
2023/10/19 02:26:37;;;;;;;0.10;0.10;;;;;;;16.36;83.43;99214.47;5051873;28;20430;-80
2023/10/19 02:29:07;;;;;;;0.03;0.03;;;;;;;16.39;83.13;99214.28;5052031;28;20056;-79
2023/10/19 02:31:37;;;;;;;0.10;0.10;;;;;;;16.42;82.99;99204.19;5045535;28;20038;-78
2023/10/19 02:34:04;;;;;;;0.10;0.10;;;;;;;16.42;83.29;99208.69;5049274;28;20040;-79
2023/10/19 02:36:31;;;;;;;0.10;0.10;;;;;;;16.48;82.35;99210.94;5044914;28;20504;-80
2023/10/19 02:38:59;;;;;;;0.10;0.10;;;;;;;16.45;82.84;99209.34;5051069;28;20029;-80
2023/10/19 02:41:27;;;;;;;0.10;0.10;;;;;;;16.46;82.68;99205.72;5046712;28;20025;-81
2023/10/19 02:44:02;;;;;;;0.10;0.10;;;;;;;16.49;82.05;99205.47;5049638;28;20131;-80
2023/10/19 02:46:30;;;;;;;0.10;0.10;;;;;;;16.49;82.39;99205.47;5048814;28;20028;-80
2023/10/19 02:48:56;;;;;;;0.10;0.10;;;;;;;16.49;82.06;99194.78;5049781;28;20048;-80
2023/10/19 02:51:22;;;;;;;0.10;0.10;;;;;;;16.51;81.94;99200.06;5051564;28;20087;-80
2023/10/19 02:53:48;;;;;;;0.10;0.10;;;;;;;16.53;81.94;99200.78;5053258;28;20048;-80
2023/10/19 02:56:18;;;;;;;0.10;0.10;;;;;;;16.53;81.51;99199.94;5042267;28;20381;-80
2023/10/19 02:58:49;;;;;;;0.10;0.10;;;;;;;16.52;81.34;99198.22;5049761;28;20116;-81
2023/10/19 03:01:24;;;;;;;0.20;0.20;;;;;;;16.56;81.50;99197.03;5046201;28;20025;-79
2023/10/19 03:03:54;;;;;;;0.10;0.10;;;;;;;16.53;81.40;99191.91;5048924;28;20040;-80
2023/10/19 03:06:21;;;;;;;0.10;0.10;;;;;;;16.53;81.27;99191.91;5045601;28;20032;-80
2023/10/19 03:08:57;;;;;;;1.55;1.20;;;;;;;16.50;81.45;99191.16;5051535;28;20506;-79
2023/10/19 03:11:24;;;;;;;0.10;0.10;;;;;;;16.46;81.07;99187.00;5050195;28;20037;-80
2023/10/19 03:13:51;;;;;;;0.20;0.20;;;;;;;16.43;81.47;99187.19;5050888;28;20025;-80
2023/10/19 03:16:19;;;;;;;0.10;0.10;;;;;;;16.44;81.39;99188.91;5051814;28;20029;-80
2023/10/19 03:18:45;;;;;;;1.38;1.33;;;;;;;16.41;81.68;99190.94;5045860;28;20037;-81
2023/10/19 03:21:11;;;;;;;0.10;0.10;;;;;;;16.43;80.90;99194.38;5037884;28;20037;-80
2023/10/19 03:23:38;;;;;;;0.10;0.10;;;;;;;16.41;81.51;99182.94;5038759;28;20033;-80
2023/10/19 03:28:55;;;;;;;0.10;0.10;;;;;;;16.42;81.22;99193.50;5036975;28;20124;-80
2023/10/19 03:31:25;;;;;;;0.60;0.60;;;;;;;16.43;81.33;99197.91;5039128;28;20045;-80
2023/10/19 03:33:55;;;;;;;0.10;0.10;;;;;;;16.40;81.15;99184.75;5037991;28;20037;-80
2023/10/19 03:36:23;;;;;;;0.20;0.20;;;;;;;16.35;81.50;99186.91;5038898;28;20435;-80
2023/10/19 03:38:52;;;;;;;0.20;0.20;;;;;;;16.28;81.07;99186.47;5038870;28;20025;-81
2023/10/19 03:41:21;;;;;;;0.28;0.28;;;;;;;16.22;81.36;99180.72;5040123;28;20052;-80
2023/10/19 03:43:49;;;;;;;0.00;0.00;;;;;;;16.14;81.41;99187.44;5039904;28;20489;-80
2023/10/19 03:46:28;;;;;;;0.10;0.10;;;;;;;16.11;80.92;99178.78;5036488;28;20065;-81
2023/10/19 03:48:58;;;;;;;0.30;0.30;;;;;;;16.00;81.05;99187.56;5037105;28;20112;-80
2023/10/19 03:51:26;;;;;;;0.10;0.10;;;;;;;15.92;81.30;99189.91;5038273;28;20045;-79
2023/10/19 03:53:55;;;;;;;0.10;0.10;;;;;;;15.90;80.91;99183.78;5038107;28;20053;-80
2023/10/19 03:56:21;;;;;;;0.10;0.10;;;;;;;15.85;80.85;99179.63;5037902;28;20029;-80
2023/10/19 03:58:50;;;;;;;0.30;0.30;;;;;;;15.78;80.77;99175.63;5036827;28;20017;-80
2023/10/19 04:01:19;;;;;;;0.30;0.30;;;;;;;15.77;80.91;99186.44;5036728;28;20063;-80
2023/10/19 04:03:45;;;;;;;1.23;0.52;;;;;;;15.73;80.79;99166.25;5033911;28;20033;-80
2023/10/19 04:06:14;;;;;;;0.10;0.10;;;;;;;15.67;80.47;99178.19;5037897;28;20033;-80
2023/10/19 04:08:42;;;;;;;0.10;0.10;;;;;;;15.72;80.53;99184.06;5037383;28;20014;-81
2023/10/19 04:11:11;;;;;;;0.10;0.10;;;;;;;15.67;80.83;99186.19;5039024;28;20060;-80
2023/10/19 04:13:38;;;;;;;0.20;0.20;;;;;;;15.72;80.90;99184.06;5038938;28;20026;-81
2023/10/19 04:16:09;;;;;;;0.10;0.10;;;;;;;15.74;80.79;99186.63;5037412;28;20041;-81
2023/10/19 04:18:39;;;;;;;0.10;0.10;;;;;;;15.70;80.82;99191.31;5034432;28;20021;-80
2023/10/19 04:21:06;;;;;;;0.10;0.10;;;;;;;15.69;80.87;99189.63;5037981;28;20086;-80
2023/10/19 04:23:34;;;;;;;0.10;0.10;;;;;;;15.76;80.52;99196.25;5039074;28;20029;-81
2023/10/19 04:26:18;;;;;;;2.20;1.48;;;;;;;15.74;80.88;99192.84;5038413;28;20064;-81
2023/10/19 04:28:45;;;;;;;0.10;0.10;;;;;;;15.71;80.43;99193.03;5037221;28;20036;-81
2023/10/19 04:31:14;;;;;;;0.10;0.10;;;;;;;15.78;80.61;99189.00;5029593;28;20060;-81
2023/10/19 04:33:42;;;;;;;0.10;0.10;;;;;;;15.80;80.24;99192.41;5033285;28;20064;-81
2023/10/19 04:36:11;;;;;;;0.10;0.10;;;;;;;15.78;80.60;99193.47;5037380;28;20535;-81
2023/10/19 04:38:37;;;;;;;0.00;0.00;;;;;;;15.81;80.49;99187.91;5036546;28;20337;-81
2023/10/19 04:41:08;;;;;;;0.10;0.10;;;;;;;15.84;80.11;99204.63;5032227;28;20034;-80
2023/10/19 04:43:36;;;;;;;0.30;0.30;;;;;;;15.83;80.32;99186.88;5031297;28;20513;-80
2023/10/19 04:46:08;;;;;;;0.10;0.10;;;;;;;15.88;80.11;99193.75;5022180;28;20056;-80
2023/10/19 04:48:35;;;;;;;1.58;1.48;;;;;;;15.83;80.17;99189.56;5030751;28;20057;-80
2023/10/19 04:51:03;;;;;;;0.10;0.10;;;;;;;15.79;80.26;99196.03;5037642;28;20037;-80
2023/10/19 04:53:31;;;;;;;0.10;0.10;;;;;;;15.84;79.88;99204.63;5037569;28;20029;-80
2023/10/19 04:55:57;;;;;;;0.10;0.10;;;;;;;15.85;79.88;99194.81;5032735;28;20025;-81
2023/10/19 04:58:23;;;;;;;0.10;0.10;;;;;;;15.85;79.72;99187.66;5029624;28;20114;-78
2023/10/19 05:00:49;;;;;;;0.10;0.10;;;;;;;15.82;79.85;99187.84;5049451;28;20034;-79
2023/10/19 05:03:18;;;;;;;0.10;0.10;;;;;;;15.83;79.76;99184.22;5048843;28;20043;-80
2023/10/19 05:05:45;;;;;;;0.00;0.00;;;;;;;15.81;79.88;99196.81;5038472;28;20143;-81
2023/10/19 05:08:11;;;;;;;0.10;0.10;;;;;;;15.85;79.79;99201.00;5037549;28;20167;-80
2023/10/19 05:10:37;;;;;;;0.30;0.30;;;;;;;15.86;79.83;99196.50;5038157;28;20040;-81
2023/10/19 05:13:04;;;;;;;0.10;0.10;;;;;;;15.83;79.77;99202.06;5032098;28;20030;-81
2023/10/19 05:15:30;;;;;;;0.10;0.10;;;;;;;15.85;79.82;99206.34;5031087;28;20040;-80
2023/10/19 05:17:56;;;;;;;0.03;0.03;;;;;;;15.84;79.84;99204.63;5037807;28;20115;-81
2023/10/19 05:20:23;;;;;;;0.10;0.10;;;;;;;15.89;79.93;99206.13;5031287;28;20044;-81
2023/10/19 05:22:49;;;;;;;0.10;0.10;;;;;;;15.89;80.00;99198.09;5039288;28;20408;-81
2023/10/19 05:25:15;;;;;;;0.10;0.10;;;;;;;15.88;79.69;99197.25;5038532;28;20323;-81
2023/10/19 05:27:42;;;;;;;0.10;0.10;;;;;;;15.88;79.55;99209.78;5036422;28;20458;-80
2023/10/19 05:30:10;;;;;;;0.10;0.10;;;;;;;15.89;79.91;99198.09;5023335;28;20539;-79
2023/10/19 05:32:36;;;;;;;0.10;0.10;;;;;;;15.89;79.65;99212.34;5032393;28;20029;-80
2023/10/19 05:35:04;;;;;;;0.10;0.10;;;;;;;15.88;79.64;99207.09;5034504;28;20033;-79
2023/10/19 05:37:31;;;;;;;0.05;0.05;;;;;;;15.92;79.79;99214.78;5030315;28;20554;-80
2023/10/19 05:39:58;;;;;;;0.10;0.10;;;;;;;15.94;79.52;99215.53;5038110;28;20022;-81
2023/10/19 05:42:25;;;;;;;0.10;0.10;;;;;;;15.94;79.75;99204.00;5037877;28;20124;-80
2023/10/19 05:44:52;;;;;;;0.10;0.10;;;;;;;15.96;79.27;99212.75;5036552;28;20032;-80
2023/10/19 05:47:18;;;;;;;0.10;0.10;;;;;;;15.96;79.38;99208.28;5030095;28;20025;-79
2023/10/19 05:49:45;;;;;;;0.10;0.10;;;;;;;15.95;79.19;99205.69;5036131;28;20038;-80
2023/10/19 05:52:11;;;;;;;0.20;0.20;;;;;;;15.95;79.42;99216.38;5035714;28;20025;-79
2023/10/19 05:54:37;;;;;;;0.10;0.10;;;;;;;15.92;79.25;99212.09;5032498;28;20041;-79
2023/10/19 05:57:08;;;;;;;0.30;0.30;;;;;;;15.92;79.16;99212.09;5030657;28;20033;-80
2023/10/19 05:59:34;;;;;;;0.10;0.10;;;;;;;15.94;79.06;99214.69;5020511;28;20033;-81
2023/10/19 06:02:00;;;;;;;0.10;0.10;;;;;;;15.94;79.37;99209.34;5034061;28;20131;-81
2023/10/19 06:04:26;;;;;;;0.10;0.10;;;;;;;15.91;79.32;99214.88;5028253;28;20044;-80
2023/10/19 06:06:52;;;;;;;0.43;0.32;;;;;;;15.90;79.34;99213.19;5037125;28;20061;-81
2023/10/19 06:09:19;;;;;;;0.10;0.10;;;;;;;15.90;79.03;99203.38;5031533;28;20040;-81
2023/10/19 06:11:45;;;;;;;0.80;0.68;;;;;;;15.85;79.32;99217.03;5031078;28;20539;-83
2023/10/19 06:14:11;;;;;;;0.20;0.20;;;;;;;15.83;79.39;99226.94;5034284;28;20052;-81
2023/10/19 06:16:38;;;;;;;0.10;0.10;;;;;;;15.84;79.21;99220.66;5022662;28;20091;-81
2023/10/19 06:19:05;;;;;;;0.10;0.10;;;;;;;15.85;79.39;99222.38;5034387;28;20076;-81
2023/10/19 06:21:32;;;;;;;1.10;1.10;;;;;;;15.87;79.18;99226.75;5034021;28;20026;-80
2023/10/19 06:23:58;;;;;;;0.03;0.03;;;;;;;15.87;79.31;99227.59;5022186;28;20083;-81
2023/10/19 06:26:24;;;;;;;0.10;0.10;;;;;;;15.83;79.51;99224.28;5034199;28;20108;-82
2023/10/19 06:28:50;;;;;;;0.10;0.10;;;;;;;15.87;79.30;99234.75;5032784;28;20029;-81
2023/10/19 06:31:17;;;;;;;0.10;0.10;;;;;;;15.90;79.22;99235.41;5027972;28;20064;-82
2023/10/19 06:33:43;;;;;;;0.10;0.10;;;;;;;15.88;79.28;99237.31;5030083;28;20038;-81
2023/10/19 06:36:09;;;;;;;0.10;0.10;;;;;;;15.91;79.47;99242.44;5033329;28;20035;-81
2023/10/19 06:38:35;;;;;;;0.20;0.20;;;;;;;15.92;79.29;99238.81;5033064;28;20034;-81
2023/10/19 06:41:10;;;;;;;0.57;0.57;;;;;;;15.94;79.47;99244.06;5030767;28;20029;-80
2023/10/19 06:43:37;;;;;;;0.10;0.10;;;;;;;15.96;79.58;99245.69;5031450;28;20025;-81
2023/10/19 06:46:03;;;;;;;0.10;0.10;;;;;;;15.96;79.69;99247.47;5031468;28;20163;-81
2023/10/19 06:48:30;;;;;;;0.00;0.00;;;;;;;15.99;79.74;99249.97;5034182;28;20041;-81
2023/10/19 06:50:57;;;;;;;0.10;0.10;;;;;;;16.02;79.46;99255.06;5032291;28;20450;-81
2023/10/19 06:53:23;;;;;;;0.10;0.10;;;;;;;16.06;79.36;99245.88;5033805;28;20083;-82
2023/10/19 06:55:49;;;;;;;0.10;0.10;;;;;;;16.05;79.79;99244.19;5036001;28;20025;-81
2023/10/19 06:58:19;;;;;;;0.20;0.20;;;;;;;16.08;79.88;99243.97;5035932;28;20495;-81
2023/10/19 07:00:53;;;;;;;0.10;0.10;;;;;;;16.09;79.85;99251.03;5031934;28;20416;-81
2023/10/19 07:03:19;;;;;;;0.10;0.10;;;;;;;16.15;79.82;99249.78;5033391;28;20103;-81
2023/10/19 07:05:45;;;;;;;0.00;0.00;;;;;;;16.13;79.61;99246.34;5035554;28;20033;-81
2023/10/19 07:08:11;;;;;;;0.25;0.22;;;;;;;16.17;79.77;99248.69;5035234;28;20051;-81
2023/10/19 07:10:37;;;;;;;0.10;0.10;;;;;;;16.22;79.63;99256.38;5030145;28;20064;-82
2023/10/19 07:13:03;;;;;;;0.10;0.10;;;;;;;16.25;79.82;99257.97;5034487;28;20108;-80
2023/10/19 07:15:30;;;;;;;0.10;0.10;;;;;;;16.29;79.57;99251.47;5034747;28;20037;-82
2023/10/19 07:17:56;;;;;;;0.30;0.30;;;;;;;16.33;79.54;99255.66;5032261;28;20041;-80
2023/10/19 07:20:26;;;;;;;0.10;0.10;;;;;;;16.36;79.68;99267.94;5028338;28;20117;-82
2023/10/19 07:22:53;;;;;;;0.10;0.10;;;;;;;16.32;79.58;99265.50;5029080;28;20562;-82
2023/10/19 07:25:21;;;;;;;0.10;0.10;;;;;;;16.42;79.28;99268.34;5025266;28;20041;-81
2023/10/19 07:27:49;;;;;;;0.10;0.10;;;;;;;16.46;79.44;99264.53;5039385;28;20079;-81
2023/10/19 07:30:21;;;;;;;0.10;0.10;;;;;;;16.47;79.25;99260.91;5045767;28;20113;-82
2023/10/19 07:33:05;;;;;;;0.10;0.10;;;;;;;16.49;79.41;99258.94;5040763;28;20029;-82
2023/10/19 07:35:37;;;;;;;0.10;0.10;;;;;;;16.55;79.07;99262.16;5037789;28;20492;-81
2023/10/19 07:38:04;;;;;;;0.10;0.10;;;;;;;16.50;79.27;99255.31;5038219;28;20095;-81
2023/10/19 07:40:30;;;;;;;0.10;0.10;;;;;;;16.55;79.08;99259.47;5037466;28;20033;-82
2023/10/19 07:42:56;;;;;;;0.10;0.10;;;;;;;16.56;79.17;99253.16;5037842;28;20096;-81
2023/10/19 07:45:23;;;;;;;0.10;0.10;;;;;;;16.58;78.96;99256.59;5038425;28;20074;-82
2023/10/19 07:47:49;;;;;;;0.10;0.10;;;;;;;16.60;78.89;99255.53;5038859;28;20431;-82
2023/10/19 07:50:16;;;;;;;0.10;0.10;;;;;;;16.63;79.11;99251.78;5037229;28;20493;-84
2023/10/19 07:52:48;;;;;;;0.10;0.10;;;;;;;16.62;79.08;99250.94;5020910;28;20515;-82
2023/10/19 07:55:15;;;;;;;0.10;0.10;;;;;;;16.64;79.09;99259.69;5040278;28;20033;-81
2023/10/19 07:57:44;;;;;;;0.10;0.10;;;;;;;16.65;78.83;99264.06;5040217;28;20021;-82
2023/10/19 08:00:13;;;;;;;0.10;0.10;;;;;;;16.70;79.01;99266.44;5028006;28;20064;-83
2023/10/19 08:02:41;;;;;;;0.10;0.10;;;;;;;16.72;79.03;99261.81;5032901;28;20091;-82
2023/10/19 08:05:08;;;;;;;0.88;0.85;;;;;;;16.74;78.83;99259.91;5035841;28;20040;-83
2023/10/19 08:07:36;;;;;;;1.08;1.08;;;;;;;16.78;78.78;99260.53;5039082;28;20041;-81
2023/10/19 08:10:05;;;;;;;0.28;0.28;;;;;;;16.81;78.88;99258.50;5036367;28;20033;-83
2023/10/19 08:12:32;;;;;;;0.10;0.10;;;;;;;16.87;78.61;99256.34;5041063;28;20033;-83
2023/10/19 08:14:59;;;;;;;0.10;0.10;;;;;;;16.86;78.84;99257.31;5028839;28;20030;-83
2023/10/19 08:17:25;;;;;;;0.10;0.10;;;;;;;16.90;78.70;99258.81;5032192;28;20511;-83
2023/10/19 08:19:51;;;;;;;0.10;0.10;;;;;;;16.95;78.81;99254.03;5035145;28;20049;-83
2023/10/19 08:22:18;;;;;;;0.10;0.10;;;;;;;16.96;78.80;99250.38;5039842;28;20021;-82
2023/10/19 08:24:45;;;;;;;0.52;0.52;;;;;;;17.01;78.61;99250.91;5040194;28;20025;-83
2023/10/19 08:27:12;;;;;;;0.10;0.10;;;;;;;17.04;78.67;99248.00;5036442;28;20077;-83
2023/10/19 08:29:39;;;;;;;0.10;0.10;;;;;;;17.06;78.69;99245.19;5030407;28;20033;-83
2023/10/19 08:32:06;;;;;;;0.10;0.10;;;;;;;17.11;78.46;99243.06;5040290;28;20057;-83
2023/10/19 08:34:36;;;;;;;0.10;0.10;;;;;;;17.19;78.59;99245.16;5027945;28;20028;-83
2023/10/19 08:37:04;;;;;;;0.10;0.10;;;;;;;17.22;78.73;99237.78;5040882;28;20388;-84
2023/10/19 08:39:40;;;;;;;0.17;0.17;;;;;;;17.29;78.80;99240.84;5039841;28;20028;-83
2023/10/19 08:42:10;;;;;;;0.10;0.10;;;;;;;17.32;78.74;99240.63;5030364;28;20038;-83
2023/10/19 08:44:36;;;;;;;0.10;0.10;;;;;;;17.41;78.85;99242.63;5031363;28;20041;-83
2023/10/19 08:47:05;;;;;;;0.10;0.10;;;;;;;17.49;78.84;99236.69;5034530;28;20041;-83
2023/10/19 08:49:31;;;;;;;0.10;0.10;;;;;;;17.57;78.71;99244.13;5039070;28;20063;-82
2023/10/19 08:52:00;;;;;;;2.22;1.55;;;;;;;17.68;79.06;99246.03;5037807;28;20492;-82
2023/10/19 08:54:29;;;;;;;0.17;0.17;;;;;;;17.82;79.08;99247.66;5026202;28;20025;-83
2023/10/19 08:56:56;;;;;;;0.10;0.10;;;;;;;17.98;79.02;99248.25;5037832;28;20026;-83
2023/10/19 08:59:23;;;;;;;0.00;0.00;;;;;;;18.15;78.85;99246.09;5034635;28;20408;-84
2023/10/19 09:01:49;;;;;;;0.10;0.10;;;;;;;18.28;78.52;99244.16;5039048;28;20017;-84
2023/10/19 09:04:16;;;;;;;0.10;0.10;;;;;;;18.43;78.34;99244.78;5038997;28;20440;-84
2023/10/19 09:06:42;;;;;;;0.05;0.05;;;;;;;18.49;77.70;99248.81;5039644;28;20029;-83
2023/10/19 09:09:16;;;;;;;0.70;0.70;;;;;;;18.53;76.73;99247.59;5029043;28;20025;-84
2023/10/19 09:11:43;;;;;;;0.10;0.10;;;;;;;18.69;76.55;99236.50;5035666;28;20037;-83
2023/10/19 09:14:12;;;;;;;0.30;0.30;;;;;;;18.73;76.37;99243.34;5030898;28;20038;-83
2023/10/19 09:16:54;;;;;;;0.45;0.45;;;;;;;18.71;75.28;99248.81;5034462;28;20045;-83
2023/10/19 09:19:20;;;;;;;0.10;0.10;;;;;;;18.79;74.78;99231.25;5035260;28;20026;-83
2023/10/19 09:21:46;;;;;;;0.00;0.00;;;;;;;18.88;75.06;99230.53;5039452;28;20022;-84
2023/10/19 09:24:13;;;;;;;0.73;0.68;;;;;;;18.97;73.98;99227.13;5037799;28;20030;-83
2023/10/19 09:26:40;;;;;;;0.00;0.00;;;;;;;19.11;74.35;99228.69;5040275;28;20033;-84
2023/10/19 09:29:07;;;;;;;0.35;0.35;;;;;;;19.13;73.36;99217.81;5040230;28;20392;-83
2023/10/19 09:31:35;;;;;;;0.00;0.00;;;;;;;19.18;74.11;99223.69;5035629;28;20030;-83
2023/10/19 09:34:05;;;;;;;0.10;0.10;;;;;;;19.14;72.72;99219.50;5040854;28;20029;-84
2023/10/19 09:36:32;;;;;;;0.10;0.10;;;;;;;19.13;72.72;99218.69;5039426;28;20037;-85
2023/10/19 09:38:58;;;;;;;0.00;0.00;;;;;;;19.10;72.75;99218.91;5039531;28;20013;-85
2023/10/19 09:41:28;;;;;;;1.23;1.17;;;;;;;19.11;72.91;99215.25;5036826;28;20034;-84
2023/10/19 09:44:04;;;;;;;0.45;0.45;;;;;;;19.16;73.60;99209.53;5033929;28;20030;-84
2023/10/19 09:46:33;;;;;;;0.22;0.22;;;;;;;19.10;72.21;99212.69;5038691;28;20040;-84
2023/10/19 09:49:00;;;;;;;0.00;0.00;;;;;;;19.10;72.19;99205.50;5036058;28;20033;-83
2023/10/19 09:51:27;;;;;;;0.38;0.38;;;;;;;19.11;72.63;99199.16;5038184;28;20087;-84
2023/10/19 09:54:02;;;;;;;0.00;0.00;;;;;;;19.16;72.45;99201.47;5039923;28;20032;-84
2023/10/19 09:56:35;;;;;;;0.10;0.10;;;;;;;19.17;72.99;99208.53;5042773;28;20029;-83
2023/10/19 09:59:07;;;;;;;0.10;0.10;;;;;;;19.18;72.43;99205.72;5042996;28;20083;-84
2023/10/19 10:02:13;;;;;;;0.10;0.10;;;;;;;19.28;72.41;99205.81;5042464;28;20033;-85
2023/10/19 10:04:40;;;;;;;0.10;0.10;;;;;;;19.16;71.54;99209.53;5034822;28;20308;-84
2023/10/19 10:07:08;;;;;;;0.00;0.00;;;;;;;19.25;71.97;99203.38;5040718;28;20033;-84
2023/10/19 10:09:39;;;;;;;0.03;0.03;;;;;;;19.35;72.26;99201.66;5029860;28;20036;-84
2023/10/19 10:12:28;;;;;;;0.30;0.30;;;;;;;19.40;72.02;99204.81;5030125;28;20081;-85
2023/10/19 10:17:35;;;;;;;0.00;0.00;;;;;;;19.62;72.19;99191.41;5108569;27;20373;-84
2023/10/19 10:23:25;;;;;;;0.20;0.20;;;;;;;19.76;71.08;99196.44;5129911;27;20384;-85
2023/10/19 10:25:53;;;;;;;0.40;0.40;;;;;;;19.73;71.02;99200.25;5104330;28;20087;-84
2023/10/19 10:28:23;;;;;;;0.90;0.90;;;;;;;19.78;71.02;99182.91;5121018;28;20043;-84
2023/10/19 10:31:10;;;;;;;0.05;0.05;;;;;;;19.96;70.44;99173.31;5118874;28;20020;-84
2023/10/19 10:33:41;;;;;;;0.08;0.08;;;;;;;20.02;70.05;99183.50;5117789;28;20136;-84
2023/10/19 10:36:08;;;;;;;0.10;0.10;;;;;;;20.00;69.78;99188.19;5117841;28;20031;-84
2023/10/19 10:38:35;;;;;;;0.10;0.10;;;;;;;20.16;70.62;99186.84;5110256;28;20490;-84
2023/10/19 10:41:02;;;;;;;0.05;0.05;;;;;;;20.27;70.18;99192.13;5113361;28;20031;-84
2023/10/19 10:43:28;;;;;;;0.10;0.10;;;;;;;20.28;69.87;99183.09;5106604;28;20032;-85
2023/10/19 10:46:09;;;;;;;0.05;0.05;;;;;;;20.38;69.62;99187.69;5100860;28;20032;-84
2023/10/19 10:48:41;;;;;;;0.20;0.20;;;;;;;20.28;67.55;99193.84;5112735;28;20017;-84
2023/10/19 10:51:27;;;;;;;0.45;0.40;;;;;;;20.40;68.04;99191.06;5103490;28;20025;-84
2023/10/19 10:53:54;;;;;;;0.10;0.10;;;;;;;20.36;68.40;99187.78;5098641;28;20423;-84
2023/10/19 10:56:23;;;;;;;0.10;0.10;;;;;;;20.34;67.83;99182.56;5108378;28;20406;-84
2023/10/19 10:58:50;;;;;;;0.05;0.05;;;;;;;20.34;68.39;99190.63;5115047;28;20055;-84
2023/10/19 11:01:29;;;;;;;0.05;0.05;;;;;;;20.42;69.03;99178.34;5113869;28;20034;-84
2023/10/19 11:04:12;;;;;;;0.43;0.38;;;;;;;20.30;69.08;99183.81;5113740;28;20031;-84
2023/10/19 11:06:49;;;;;;;0.22;0.22;;;;;;;20.20;68.43;99180.22;5103588;28;20496;-84
2023/10/19 11:09:18;;;;;;;2.10;0.80;;;;;;;20.29;68.39;99187.47;5109696;28;20035;-85
2023/10/19 11:11:45;;;;;;;0.00;0.00;;;;;;;20.34;68.95;99184.41;5103463;28;20032;-84
2023/10/19 11:14:12;;;;;;;0.73;0.73;;;;;;;20.33;68.31;99185.38;5102732;28;20035;-84
2023/10/19 11:16:39;;;;;;;0.17;0.17;;;;;;;20.32;68.41;99179.13;5106419;28;20024;-83
2023/10/19 11:19:09;;;;;;;0.03;0.03;;;;;;;20.34;68.74;99182.56;5109155;28;20088;-84
2023/10/19 11:21:35;;;;;;;0.05;0.05;;;;;;;20.40;68.57;99181.19;5109851;28;20285;-84
2023/10/19 11:24:02;;;;;;;0.10;0.10;;;;;;;20.51;69.23;99185.59;5112045;28;20027;-83
2023/10/19 11:26:29;;;;;;;0.20;0.20;;;;;;;20.56;68.19;99180.69;5113324;28;20034;-84
2023/10/19 11:29:00;;;;;;;0.40;0.40;;;;;;;20.78;68.97;99168.03;5111521;28;20143;-84
2023/10/19 11:31:27;;;;;;;0.10;0.10;;;;;;;20.95;68.86;99163.81;5111028;28;20048;-84
2023/10/19 11:33:55;;;;;;;0.10;0.10;;;;;;;21.12;67.80;99156.88;5096922;28;20032;-84
2023/10/19 11:36:24;;;;;;;0.20;0.20;;;;;;;21.33;67.87;99151.38;5099844;28;20028;-83
2023/10/19 11:38:52;;;;;;;0.08;0.08;;;;;;;21.46;65.92;99151.09;5099130;28;20032;-84
2023/10/19 11:41:18;;;;;;;0.00;0.00;;;;;;;21.46;64.39;99140.31;5094279;28;20024;-84
2023/10/19 11:43:46;;;;;;;0.65;0.65;;;;;;;21.45;64.64;99138.63;5095612;28;20028;-84
2023/10/19 11:46:12;;;;;;;0.08;0.08;;;;;;;21.38;64.31;99129.41;5088919;28;20028;-84
2023/10/19 11:48:39;;;;;;;0.10;0.10;;;;;;;21.38;65.91;99126.72;5080101;28;20116;-84
2023/10/19 11:51:06;;;;;;;0.00;0.00;;;;;;;21.28;65.22;99138.34;5087757;28;20055;-84
2023/10/19 11:53:34;;;;;;;0.25;0.25;;;;;;;21.24;65.28;99130.69;5101672;28;20032;-84
2023/10/19 11:56:03;;;;;;;0.10;0.10;;;;;;;21.22;66.23;99128.13;5093210;28;20515;-83
2023/10/19 11:58:32;;;;;;;0.47;0.32;;;;;;;21.13;66.21;99124.44;5099109;28;20411;-84
2023/10/19 12:00:59;;;;;;;0.00;0.00;;;;;;;21.04;65.23;99127.13;5102032;28;20395;-84
2023/10/19 12:03:25;;;;;;;0.65;0.35;;;;;;;21.06;66.28;99122.44;5099164;28;20032;-84
2023/10/19 12:05:53;;;;;;;6.78;1.45;;;;;;;21.04;65.89;99119.06;5089890;28;20023;-84
2023/10/19 12:08:19;;;;;;;0.20;0.20;;;;;;;20.94;65.64;99119.88;5098928;28;20043;-84
2023/10/19 12:10:45;;;;;;;0.10;0.10;;;;;;;20.95;66.05;99115.38;5099983;28;20055;-84
2023/10/19 12:13:11;;;;;;;0.13;0.13;;;;;;;20.96;66.96;99117.91;5102282;28;20034;-83